This is the latest recevied weather packets stored in our database for station/object WA2TQI. If no packets are shown the sender has not sent any weather packets the latest 10 day(s).
| Time | Temp. | Humidity | Pressure | Rain* | Wind** | Luminosity | Snow |
|---|---|---|---|---|---|---|---|
| 1777507835 | 10° C | 99% | 1011.7 hPa | 1.27 mm | - | - | - |
| 1777507532 | 10° C | 99% | 1011.6 hPa | 1.78 mm | - | - | - |
| 1777506926 | 10° C | 97% | 1011.5 hPa | 0 mm | - | - | - |
| 1777502980 | 13.33° C | 69% | 1011.7 hPa | 0 mm | - | - | - |
| 1777501768 | 13.89° C | 65% | 1011.6 hPa | 0 mm | - | - | - |
| 1777500861 | 14.44° C | 64% | 1011.6 hPa | 0 mm | - | - | - |
| 1777500557 | 14.44° C | 64% | 1011.6 hPa | 0 mm | - | - | - |
| 1777499647 | 15° C | 63% | 1011.8 hPa | 0 mm | - | - | - |
| 1777498738 | 15° C | 64% | 1011.7 hPa | 0 mm | - | - | - |
| 1777498435 | 15.56° C | 63% | 1011.8 hPa | 0 mm | - | - | - |
| 1777497829 | 15.56° C | 63% | 1012 hPa | 0 mm | - | - | - |
| 1777497525 | 15.56° C | 62% | 1011.8 hPa | 0 mm | - | - | - |
| 1777496918 | 15.56° C | 61% | 1011.7 hPa | 0 mm | - | - | - |
| 1777496615 | 15.56° C | 61% | 1011.7 hPa | 0 mm | - | - | - |
| 1777496311 | 15.56° C | 61% | 1011.7 hPa | 0 mm | - | - | - |
| 1777494794 | 15.56° C | 66% | 1012.1 hPa | 0 mm | - | - | - |
| 1777494491 | 15.56° C | 66% | 1012.2 hPa | 0 mm | - | - | - |
| 1777494188 | 15.56° C | 67% | 1012 hPa | 0 mm | - | - | - |
| 1777493583 | 15.56° C | 69% | 1012 hPa | 0 mm | - | - | - |
| 1777492976 | 15.56° C | 69% | 1012.4 hPa | 0 mm | - | - | - |
| 1777492373 | 16.11° C | 66% | 1012.9 hPa | 0 mm | - | - | - |
| 1777491767 | 16.67° C | 62% | 1012.7 hPa | 0 mm | - | - | - |
| 1777491464 | 17.22° C | 61% | 1012.9 hPa | 0 mm | - | - | - |
| 1777491161 | 17.22° C | 61% | 1013 hPa | 0 mm | - | - | - |
| 1777490857 | 17.78° C | 60% | 1012.8 hPa | 0 mm | - | - | - |
* Rain latest hour (hover to see other rain measurements)
** Current wind speed in m/s (hover to see current wind gust speed)